Time;durP1;ratioP1;P1;durP2;ratioP2;P2;SDS_P1;SDS_P2;PMS_P1;PMS_P2;Temp;Humidity;BMP_temperature;BMP_pressure;BME280_temperature;BME280_humidity;BME280_pressure;Samples;Min_cycle;Max_cycle;Signal;HPM_P1;HPM_P2
2022/01/20 00:00:32;;;;;;;11.02;2.33;;;4.70;92.50;;;;;;5123877;27;20038;-81
2022/01/20 00:03:02;;;;;;;20.73;3.30;;;4.70;92.60;;;;;;5140086;27;20495;-81
2022/01/20 00:27:33;;;;;;;14.70;3.10;;;5.00;90.70;;;;;;5157291;27;20057;-81
2022/01/20 00:32:43;;;;;;;9.98;1.80;;;5.10;89.80;;;;;;5157234;27;20042;-81
2022/01/20 00:37:40;;;;;;;5.03;1.13;;;5.20;88.60;;;;;;5156881;27;20038;-80
2022/01/20 00:40:06;;;;;;;9.93;1.15;;;5.20;88.00;;;;;;5139728;27;20105;-80
2022/01/20 00:42:32;;;;;;;1.70;0.68;;;5.20;88.10;;;;;;5122715;27;20041;-80
2022/01/20 00:44:58;;;;;;;2.75;0.85;;;5.20;87.60;;;;;;5156623;27;20410;-80
2022/01/20 00:47:23;;;;;;;3.90;0.77;;;5.20;88.00;;;;;;5157115;27;20026;-80
2022/01/20 00:49:49;;;;;;;3.83;1.02;;;5.10;88.30;;;;;;5156864;27;20040;-81
2022/01/20 00:52:15;;;;;;;7.75;1.10;;;5.10;88.40;;;;;;5156851;27;20035;-80
2022/01/20 00:54:41;;;;;;;7.97;1.33;;;5.00;88.50;;;;;;5122413;27;20078;-81
2022/01/20 00:57:07;;;;;;;7.63;1.70;;;5.00;88.70;;;;;;5139374;27;20066;-81
2022/01/20 00:59:32;;;;;;;6.78;1.50;;;4.90;88.60;;;;;;5139326;27;20073;-81
2022/01/20 01:02:01;;;;;;;7.95;0.95;;;4.90;88.40;;;;;;5139420;27;20471;-81
2022/01/20 01:04:27;;;;;;;8.27;1.27;;;4.80;88.60;;;;;;5156699;27;20042;-81
2022/01/20 01:07:16;;;;;;;8.65;1.38;;;4.90;88.60;;;;;;5156453;27;20034;-81
2022/01/20 01:09:42;;;;;;;6.88;1.67;;;4.90;88.80;;;;;;5139323;27;20037;-81
2022/01/20 01:12:14;;;;;;;7.78;1.98;;;4.90;89.10;;;;;;5122387;27;20034;-81
2022/01/20 01:14:44;;;;;;;10.45;1.38;;;4.90;89.30;;;;;;5139363;27;20095;-80
2022/01/20 01:22:21;;;;;;;11.27;2.45;;;5.00;90.00;;;;;;5156545;27;20075;-81
2022/01/20 01:24:51;;;;;;;17.30;2.75;;;5.00;90.40;;;;;;5139648;27;20038;-80
2022/01/20 01:27:17;;;;;;;14.35;2.58;;;5.10;90.60;;;;;;5139224;27;20030;-80
2022/01/20 01:32:34;;;;;;;14.40;2.92;;;5.10;90.90;;;;;;5145569;27;20103;-80
2022/01/20 01:35:04;;;;;;;14.20;1.85;;;5.20;90.50;;;;;;5142985;27;20042;-80
2022/01/20 01:39:59;;;;;;;5.38;0.80;;;5.10;88.30;;;;;;5143655;27;20466;-80
2022/01/20 01:42:32;;;;;;;12.77;2.80;;;5.10;87.40;;;;;;5125710;27;20070;-80
2022/01/20 01:45:10;;;;;;;7.50;2.70;;;5.10;87.00;;;;;;5142599;27;20093;-81
2022/01/20 01:47:35;;;;;;;8.98;1.60;;;5.00;86.90;;;;;;5159836;27;20042;-81
2022/01/20 01:50:02;;;;;;;9.80;1.20;;;5.00;86.90;;;;;;5142857;27;20114;-80
2022/01/20 01:52:28;;;;;;;11.23;1.73;;;5.00;87.10;;;;;;5142688;27;20045;-81
2022/01/20 01:54:54;;;;;;;6.60;1.27;;;5.00;86.90;;;;;;5142852;27;20141;-81
2022/01/20 01:57:22;;;;;;;9.82;2.28;;;5.00;87.40;;;;;;5125437;27;20046;-81
2022/01/20 01:59:48;;;;;;;12.23;3.50;;;4.90;87.90;;;;;;5159834;27;20046;-81
2022/01/20 02:02:14;;;;;;;16.65;2.60;;;5.00;88.50;;;;;;5142494;27;20093;-81
2022/01/20 02:04:40;;;;;;;15.05;3.83;;;5.00;89.10;;;;;;5142727;27;20045;-81
2022/01/20 02:18:53;;;;;;;10.02;2.05;;;5.00;90.20;;;;;;5159748;27;20105;-81
2022/01/20 02:21:09;;;;;;;11.13;2.83;;;4.90;90.00;;;;;;5155955;27;20046;-80
2022/01/20 02:23:35;;;;;;;15.43;2.67;;;5.00;90.00;;;;;;5142192;27;20039;-80
2022/01/20 02:26:01;;;;;;;16.42;2.72;;;4.90;89.90;;;;;;5142035;27;20548;-80
2022/01/20 02:28:27;;;;;;;10.02;2.40;;;4.90;89.60;;;;;;5141972;27;20481;-80
2022/01/20 02:30:53;;;;;;;12.73;2.40;;;4.80;89.10;;;;;;5159262;27;20031;-80
2022/01/20 02:33:23;;;;;;;19.00;3.17;;;4.80;88.90;;;;;;5124805;27;20046;-80
2022/01/20 02:35:54;;;;;;;17.25;3.03;;;4.80;88.10;;;;;;5159064;27;20038;-80
2022/01/20 02:38:37;;;;;;;18.65;3.05;;;4.80;88.20;;;;;;5159205;27;20049;-80
2022/01/20 02:46:34;;;;;;;27.60;5.60;;;4.80;87.60;;;;;;5158853;27;20042;-80
2022/01/20 02:49:00;;;;;;;18.48;4.10;;;4.90;86.90;;;;;;5141566;27;20065;-81
2022/01/20 02:51:26;;;;;;;26.98;4.65;;;4.90;86.20;;;;;;5158842;27;20069;-81
2022/01/20 02:53:52;;;;;;;33.75;4.50;;;4.90;85.40;;;;;;5158743;27;20092;-81
2022/01/20 02:56:18;;;;;;;15.25;3.30;;;4.90;83.90;;;;;;5158741;27;20038;-81
2022/01/20 02:58:44;;;;;;;8.98;2.33;;;5.00;81.10;;;;;;5158654;27;20041;-81
2022/01/20 03:01:10;;;;;;;14.15;3.13;;;4.90;76.60;;;;;;5158609;27;20030;-81
2022/01/20 03:03:36;;;;;;;13.65;2.22;;;4.90;76.60;;;;;;5158464;27;20500;-81
2022/01/20 03:06:03;;;;;;;15.30;3.55;;;4.80;76.50;;;;;;5158796;27;20081;-81
2022/01/20 03:08:29;;;;;;;20.00;3.92;;;4.80;78.10;;;;;;5124374;27;20077;-81
2022/01/20 03:10:55;;;;;;;16.58;4.32;;;4.70;78.60;;;;;;5141176;27;20445;-81
2022/01/20 03:13:20;;;;;;;17.35;4.18;;;4.70;79.20;;;;;;5158393;27;20081;-81
2022/01/20 03:15:46;;;;;;;24.30;4.63;;;4.70;80.20;;;;;;5123933;27;20093;-81
2022/01/20 03:18:12;;;;;;;14.48;4.68;;;4.70;81.30;;;;;;5140963;27;20133;-81
2022/01/20 03:20:38;;;;;;;19.45;3.83;;;4.70;81.70;;;;;;5158469;27;20038;-81
2022/01/20 03:23:04;;;;;;;22.58;4.35;;;4.60;82.40;;;;;;5158156;27;20069;-81
2022/01/20 03:25:30;;;;;;;19.75;5.20;;;4.60;83.00;;;;;;5158091;27;20113;-81
2022/01/20 03:27:56;;;;;;;35.17;7.18;;;4.60;83.10;;;;;;5124064;27;20034;-81
2022/01/20 03:30:23;;;;;;;19.80;3.38;;;4.60;83.10;;;;;;5158379;27;20434;-81
2022/01/20 03:32:49;;;;;;;28.50;4.70;;;4.60;83.10;;;;;;5157774;27;20034;-81
2022/01/20 03:35:15;;;;;;;18.70;4.05;;;4.60;82.40;;;;;;5140719;27;20042;-80
2022/01/20 03:37:41;;;;;;;24.23;4.68;;;4.60;82.00;;;;;;5140935;27;20030;-81
2022/01/20 03:40:08;;;;;;;16.00;3.47;;;4.60;81.20;;;;;;5158208;27;20090;-81
2022/01/20 03:42:34;;;;;;;16.40;2.90;;;4.60;80.40;;;;;;5157802;27;20053;-81
2022/01/20 03:45:00;;;;;;;16.50;3.50;;;4.60;80.10;;;;;;5140324;27;20121;-80
2022/01/20 03:47:26;;;;;;;14.73;3.05;;;4.60;80.50;;;;;;5140693;27;20128;-80
2022/01/20 03:52:39;;;;;;;17.20;4.07;;;4.60;80.80;;;;;;5115671;27;20046;-80
2022/01/20 03:55:05;;;;;;;17.20;3.17;;;4.50;80.80;;;;;;5140216;27;20063;-81
2022/01/20 03:57:31;;;;;;;11.02;2.88;;;4.50;80.70;;;;;;5140422;27;20042;-80
2022/01/20 03:59:57;;;;;;;20.73;4.85;;;4.50;80.40;;;;;;5140507;27;20034;-80
2022/01/20 04:02:22;;;;;;;13.73;3.53;;;4.50;80.40;;;;;;5157349;27;20513;-80
2022/01/20 04:04:48;;;;;;;16.17;3.10;;;4.50;80.70;;;;;;5122934;27;20076;-80
2022/01/20 04:07:13;;;;;;;17.85;2.72;;;4.50;80.10;;;;;;5140245;27;20073;-80
2022/01/20 04:09:39;;;;;;;12.50;2.20;;;4.50;78.70;;;;;;5140113;27;20034;-80
2022/01/20 04:12:05;;;;;;;13.60;4.07;;;4.50;78.70;;;;;;5140028;27;20034;-80
2022/01/20 04:14:33;;;;;;;10.30;2.75;;;4.40;79.20;;;;;;5157214;27;20170;-80
2022/01/20 04:19:30;;;;;;;13.18;3.67;;;4.30;79.30;;;;;;5140050;27;20042;-80
2022/01/20 04:21:56;;;;;;;16.33;3.33;;;4.30;78.90;;;;;;5141073;27;20042;-80
2022/01/20 04:24:22;;;;;;;14.25;3.50;;;4.30;78.40;;;;;;5157074;27;20046;-80
2022/01/20 04:26:49;;;;;;;14.27;3.55;;;4.30;79.00;;;;;;5157269;27;20045;-80
2022/01/20 04:29:16;;;;;;;10.52;2.83;;;4.20;79.30;;;;;;5139895;27;20041;-80
2022/01/20 04:31:43;;;;;;;14.85;3.10;;;4.20;79.90;;;;;;5122789;27;20072;-80
2022/01/20 04:34:10;;;;;;;13.73;2.60;;;4.30;81.40;;;;;;5156979;27;20038;-80
2022/01/20 04:36:39;;;;;;;11.35;3.33;;;4.20;82.70;;;;;;5139740;27;20129;-80
2022/01/20 04:39:13;;;;;;;15.65;2.80;;;4.10;83.00;;;;;;5156970;27;20038;-80
2022/01/20 04:41:39;;;;;;;16.38;3.33;;;4.00;83.70;;;;;;5139720;27;20101;-80
2022/01/20 04:44:15;;;;;;;14.75;2.92;;;3.90;84.00;;;;;;5153147;27;20046;-80
2022/01/20 04:46:58;;;;;;;12.15;2.55;;;3.80;84.10;;;;;;5136070;27;20042;-80
2022/01/20 04:57:43;;;;;;;16.95;3.28;;;3.50;84.80;;;;;;5153260;27;20035;-80
2022/01/20 05:00:10;;;;;;;13.15;3.45;;;3.50;85.00;;;;;;5136038;27;20205;-81
2022/01/20 05:02:38;;;;;;;19.98;4.47;;;3.50;84.90;;;;;;5153135;27;20125;-80
2022/01/20 05:05:07;;;;;;;20.38;4.47;;;3.50;84.80;;;;;;5139405;27;20066;-80
2022/01/20 05:07:33;;;;;;;21.98;3.75;;;3.50;84.90;;;;;;5157361;27;20074;-80
2022/01/20 05:09:59;;;;;;;15.38;3.67;;;3.50;85.10;;;;;;5157438;27;20076;-80
2022/01/20 05:12:35;;;;;;;14.95;2.20;;;3.60;84.50;;;;;;5157616;27;20039;-80
2022/01/20 05:15:00;;;;;;;19.30;4.65;;;3.70;84.60;;;;;;5157740;27;20427;-80
2022/01/20 05:17:26;;;;;;;14.63;3.40;;;3.70;84.60;;;;;;5140185;27;20031;-79
2022/01/20 05:19:52;;;;;;;10.82;2.85;;;3.50;85.50;;;;;;5139989;27;20494;-79
2022/01/20 05:22:17;;;;;;;12.95;3.15;;;3.40;85.80;;;;;;5157088;27;20062;-79
2022/01/20 05:24:43;;;;;;;13.73;2.65;;;3.40;85.40;;;;;;5157163;27;20393;-80
2022/01/20 05:27:09;;;;;;;13.98;3.08;;;3.40;85.20;;;;;;5157279;27;20049;-79
2022/01/20 05:29:37;;;;;;;14.80;2.92;;;3.30;85.60;;;;;;5157007;27;20039;-79
2022/01/20 05:32:03;;;;;;;18.48;3.13;;;3.30;85.90;;;;;;5122669;27;20035;-80
2022/01/20 05:34:28;;;;;;;21.98;4.68;;;3.30;86.20;;;;;;5156935;27;20053;-79
2022/01/20 05:36:54;;;;;;;19.65;3.22;;;3.30;86.50;;;;;;5139536;27;20047;-80
2022/01/20 05:39:20;;;;;;;13.73;2.70;;;3.30;86.80;;;;;;5156867;27;20042;-80
2022/01/20 05:41:46;;;;;;;15.15;3.70;;;3.30;86.50;;;;;;5156757;27;20072;-80
2022/01/20 05:44:12;;;;;;;12.25;2.83;;;3.20;86.30;;;;;;5139269;27;20486;-79
2022/01/20 05:46:45;;;;;;;15.40;2.80;;;3.20;86.20;;;;;;5139467;27;20452;-79
2022/01/20 05:49:10;;;;;;;10.43;3.50;;;3.10;86.30;;;;;;5123557;27;20038;-80
2022/01/20 05:51:40;;;;;;;15.50;3.15;;;3.20;86.10;;;;;;5122264;27;20034;-79
2022/01/20 05:54:07;;;;;;;8.82;2.53;;;3.30;85.90;;;;;;5156781;27;20039;-81
2022/01/20 05:56:32;;;;;;;12.68;3.75;;;3.40;85.50;;;;;;5139406;27;20035;-80
2022/01/20 05:58:59;;;;;;;14.57;3.47;;;3.30;86.40;;;;;;5156706;27;20041;-80
2022/01/20 06:01:26;;;;;;;16.10;3.03;;;3.30;87.00;;;;;;5139034;27;20498;-80
2022/01/20 06:03:52;;;;;;;13.27;2.90;;;3.20;87.30;;;;;;5156299;27;20062;-79
2022/01/20 06:06:18;;;;;;;18.33;4.13;;;3.10;86.80;;;;;;5156476;27;20386;-80
2022/01/20 06:08:44;;;;;;;9.30;2.33;;;3.10;86.70;;;;;;5138993;27;20034;-80
2022/01/20 06:11:09;;;;;;;11.18;2.78;;;3.10;86.20;;;;;;5139171;27;20389;-80
2022/01/20 06:13:35;;;;;;;12.82;4.72;;;3.10;85.90;;;;;;5139140;27;20038;-80
2022/01/20 06:16:02;;;;;;;12.98;3.05;;;3.10;85.10;;;;;;5155741;27;20484;-80
2022/01/20 06:18:27;;;;;;;10.88;2.15;;;3.10;84.50;;;;;;5138770;27;20046;-80
2022/01/20 06:20:54;;;;;;;42.97;14.95;;;3.10;84.40;;;;;;5156257;27;20047;-80
2022/01/20 06:23:21;;;;;;;15.40;2.75;;;3.20;83.80;;;;;;5156046;27;20391;-80
2022/01/20 06:25:48;;;;;;;13.00;2.60;;;3.30;82.30;;;;;;5138800;27;20034;-79
2022/01/20 06:28:15;;;;;;;11.35;2.45;;;3.30;81.90;;;;;;5155894;27;20034;-80
2022/01/20 06:30:41;;;;;;;10.88;2.10;;;3.40;80.90;;;;;;5155762;27;20050;-79
2022/01/20 06:33:07;;;;;;;7.57;2.80;;;3.40;80.90;;;;;;5138530;27;20034;-80
2022/01/20 06:35:34;;;;;;;13.88;4.13;;;3.40;80.60;;;;;;5155673;27;20054;-79
2022/01/20 06:38:00;;;;;;;11.15;2.45;;;3.40;80.90;;;;;;5155958;27;20047;-80
2022/01/20 06:40:26;;;;;;;8.68;2.25;;;3.50;80.30;;;;;;5138430;27;20439;-79
2022/01/20 06:42:52;;;;;;;17.17;4.00;;;3.50;79.90;;;;;;5138154;27;20042;-79
2022/01/20 06:45:19;;;;;;;15.23;2.63;;;3.60;79.90;;;;;;5138162;27;20050;-80
2022/01/20 06:47:44;;;;;;;12.13;3.15;;;3.60;79.80;;;;;;5138200;27;20046;-79
2022/01/20 06:50:12;;;;;;;15.68;3.10;;;3.80;83.30;;;;;;5138196;27;20031;-80
2022/01/20 06:52:39;;;;;;;16.75;3.30;;;3.70;85.00;;;;;;5121280;27;20046;-80
2022/01/20 06:55:07;;;;;;;25.85;4.47;;;3.60;86.20;;;;;;5155263;27;20050;-79
2022/01/20 06:57:37;;;;;;;15.70;4.05;;;3.40;86.80;;;;;;5121432;27;20101;-79
2022/01/20 07:00:05;;;;;;;13.18;3.50;;;3.30;87.40;;;;;;5137925;27;20046;-79
2022/01/20 07:02:31;;;;;;;22.27;4.57;;;3.30;87.30;;;;;;5155487;27;20038;-80
2022/01/20 07:04:56;;;;;;;16.92;3.35;;;3.20;87.30;;;;;;5121316;27;20034;-80
2022/01/20 07:07:22;;;;;;;18.92;4.40;;;3.10;86.80;;;;;;5137860;27;20042;-80
2022/01/20 07:09:48;;;;;;;20.38;3.65;;;3.10;86.60;;;;;;5137773;27;20053;-80
2022/01/20 07:12:14;;;;;;;14.13;3.70;;;3.00;86.30;;;;;;5155317;27;20066;-80
2022/01/20 07:14:39;;;;;;;15.05;3.92;;;3.00;85.90;;;;;;5137673;27;20438;-80
2022/01/20 07:17:06;;;;;;;20.80;4.05;;;2.90;85.80;;;;;;5137894;27;20042;-79
2022/01/20 07:19:32;;;;;;;17.23;3.30;;;3.00;85.30;;;;;;5155142;27;20046;-80
2022/01/20 07:21:59;;;;;;;11.50;3.42;;;2.90;85.30;;;;;;5154829;27;20043;-80
2022/01/20 07:24:27;;;;;;;22.10;3.70;;;3.00;85.40;;;;;;5137673;27;20398;-80
2022/01/20 07:26:53;;;;;;;21.75;4.75;;;3.00;85.30;;;;;;5153874;27;20038;-80
2022/01/20 07:29:19;;;;;;;15.18;3.17;;;3.00;85.10;;;;;;5137201;27;20042;-80
2022/01/20 07:31:44;;;;;;;13.13;3.40;;;3.10;84.40;;;;;;5137479;27;20034;-80
2022/01/20 07:34:10;;;;;;;14.00;4.93;;;3.10;84.00;;;;;;5137501;27;20047;-80
2022/01/20 07:36:36;;;;;;;30.48;14.10;;;3.30;82.90;;;;;;5120105;27;20427;-80
2022/01/20 07:39:02;;;;;;;43.55;24.48;;;3.50;82.50;;;;;;5154648;27;20102;-80
2022/01/20 07:41:28;;;;;;;42.10;23.20;;;3.60;83.40;;;;;;5137079;27;20035;-80
2022/01/20 07:43:54;;;;;;;34.75;13.20;;;3.50;83.40;;;;;;5151501;27;20065;-80
2022/01/20 07:46:20;;;;;;;36.88;25.38;;;3.50;83.50;;;;;;5136859;27;20043;-81
2022/01/20 07:48:46;;;;;;;31.45;10.55;;;3.60;82.00;;;;;;5137140;27;20041;-80
2022/01/20 07:51:12;;;;;;;19.98;6.30;;;3.60;81.00;;;;;;5119917;27;20121;-80
2022/01/20 07:53:38;;;;;;;45.40;17.05;;;3.60;80.90;;;;;;5154203;27;20039;-80
2022/01/20 07:56:08;;;;;;;35.78;11.50;;;3.60;81.10;;;;;;5153975;27;20050;-80
2022/01/20 07:58:35;;;;;;;52.47;17.77;;;3.60;80.60;;;;;;5153894;27;20050;-81
2022/01/20 08:01:01;;;;;;;76.55;22.95;;;3.70;80.20;;;;;;5153669;27;20047;-80
2022/01/20 08:03:27;;;;;;;80.85;28.50;;;3.80;81.30;;;;;;5153995;27;20030;-80
2022/01/20 08:05:53;;;;;;;95.00;36.80;;;3.70;82.30;;;;;;5136448;27;20034;-81
2022/01/20 08:08:18;;;;;;;131.65;47.67;;;3.80;83.30;;;;;;5119419;27;20368;-80
2022/01/20 08:10:44;;;;;;;93.88;40.42;;;3.70;83.60;;;;;;5136607;27;20048;-80
2022/01/20 08:13:10;;;;;;;71.53;28.98;;;3.70;83.40;;;;;;5136651;27;20091;-80
2022/01/20 08:15:36;;;;;;;65.57;37.72;;;3.60;82.80;;;;;;5153742;27;20038;-80
2022/01/20 08:18:02;;;;;;;76.32;50.83;;;3.60;82.50;;;;;;5136515;27;20121;-80
2022/01/20 08:20:28;;;;;;;27.95;10.20;;;3.60;82.10;;;;;;5136395;27;20076;-80
2022/01/20 08:22:54;;;;;;;19.73;6.20;;;3.60;80.70;;;;;;5153652;27;20042;-80
2022/01/20 08:25:20;;;;;;;11.00;5.57;;;3.60;81.10;;;;;;5136447;27;20043;-80
2022/01/20 08:27:47;;;;;;;16.23;5.20;;;3.50;81.20;;;;;;5136681;27;20043;-80
2022/01/20 08:30:16;;;;;;;16.55;4.97;;;3.60;81.00;;;;;;5136298;27;20074;-80
2022/01/20 08:32:43;;;;;;;11.65;3.50;;;3.60;80.70;;;;;;5153843;27;20039;-81
2022/01/20 08:35:10;;;;;;;12.55;3.65;;;3.60;80.90;;;;;;5119340;27;20390;-80
2022/01/20 08:37:40;;;;;;;14.02;3.45;;;3.60;80.60;;;;;;5153296;27;20126;-80
2022/01/20 08:40:14;;;;;;;14.32;2.85;;;3.70;80.40;;;;;;5136705;27;20121;-80
2022/01/20 08:42:41;;;;;;;20.45;4.35;;;3.70;80.70;;;;;;5153679;27;20051;-80
2022/01/20 08:45:08;;;;;;;11.23;3.97;;;3.70;80.70;;;;;;5118679;27;20055;-80
2022/01/20 08:47:34;;;;;;;13.75;3.50;;;3.80;81.00;;;;;;5153273;27;20039;-80
2022/01/20 08:50:00;;;;;;;15.50;3.50;;;3.90;81.80;;;;;;5136240;27;20041;-81
2022/01/20 08:52:28;;;;;;;13.50;3.15;;;3.80;83.30;;;;;;5153690;27;20034;-80
2022/01/20 08:54:57;;;;;;;23.83;4.38;;;3.60;84.70;;;;;;5153233;27;20038;-80
2022/01/20 08:57:24;;;;;;;20.02;3.80;;;3.50;85.50;;;;;;5136028;27;20562;-80
2022/01/20 08:59:49;;;;;;;18.00;3.28;;;3.40;86.40;;;;;;5136243;27;20039;-80
2022/01/20 09:02:15;;;;;;;19.92;5.35;;;3.40;87.20;;;;;;5136177;27;20126;-80
2022/01/20 09:04:41;;;;;;;15.02;4.60;;;3.40;87.10;;;;;;5152990;27;20045;-80
2022/01/20 09:07:07;;;;;;;11.13;4.07;;;3.50;86.40;;;;;;5135910;27;20184;-80
2022/01/20 09:09:41;;;;;;;12.02;2.88;;;3.50;85.80;;;;;;5136264;27;20129;-80
2022/01/20 09:15:27;;;;;;;18.65;3.75;;;3.50;85.50;;;;;;5137207;27;20037;-80
2022/01/20 09:17:38;;;;;;;15.75;3.38;;;3.50;84.60;;;;;;5154067;27;20045;-79
2022/01/20 09:20:04;;;;;;;16.73;6.32;;;3.60;84.20;;;;;;5135932;27;20035;-80
2022/01/20 09:22:31;;;;;;;13.82;2.70;;;3.60;84.20;;;;;;5153003;27;20081;-80
2022/01/20 09:24:56;;;;;;;19.52;3.35;;;3.60;84.10;;;;;;5135784;27;20038;-80
2022/01/20 09:27:22;;;;;;;15.35;4.00;;;3.60;84.10;;;;;;5135813;27;20035;-80
2022/01/20 09:29:48;;;;;;;11.70;2.20;;;3.60;84.10;;;;;;5135732;27;20367;-80
2022/01/20 09:32:16;;;;;;;9.45;2.22;;;3.70;83.80;;;;;;5135701;27;20042;-80
2022/01/20 09:34:42;;;;;;;18.42;3.90;;;3.90;83.10;;;;;;5152791;27;20041;-80
2022/01/20 09:37:08;;;;;;;14.73;2.95;;;3.90;82.50;;;;;;5135631;27;20043;-78
2022/01/20 09:39:37;;;;;;;12.65;3.92;;;4.10;82.30;;;;;;5135919;27;20398;-78
2022/01/20 09:42:05;;;;;;;13.27;2.67;;;4.20;81.80;;;;;;5136229;27;20074;-80
2022/01/20 09:44:31;;;;;;;9.95;2.40;;;4.30;79.70;;;;;;5133168;27;20134;-79
2022/01/20 09:46:57;;;;;;;13.13;2.58;;;4.30;79.70;;;;;;5135384;27;20122;-80
2022/01/20 09:49:22;;;;;;;13.80;2.83;;;4.20;79.20;;;;;;5153167;27;20057;-80
2022/01/20 09:51:48;;;;;;;8.77;2.83;;;4.30;78.30;;;;;;5139523;27;20038;-80
2022/01/20 09:54:14;;;;;;;16.00;3.28;;;4.30;78.60;;;;;;5156112;27;20077;-80
2022/01/20 09:56:44;;;;;;;8.85;2.40;;;4.20;78.90;;;;;;5156210;27;20043;-80
2022/01/20 09:59:10;;;;;;;16.30;3.53;;;4.30;79.20;;;;;;5156643;27;20043;-80
2022/01/20 10:01:45;;;;;;;22.20;3.70;;;4.30;80.60;;;;;;5138942;27;20561;-80
2022/01/20 10:04:41;;;;;;;18.73;3.67;;;4.40;81.70;;;;;;5156327;27;20399;-80
2022/01/20 10:07:09;;;;;;;18.05;5.25;;;4.50;82.80;;;;;;5139158;27;20047;-81
2022/01/20 10:09:39;;;;;;;28.83;6.88;;;4.50;83.40;;;;;;5138952;27;20041;-81
2022/01/20 10:12:07;;;;;;;15.85;4.88;;;4.50;83.70;;;;;;5138947;27;20034;-81
2022/01/20 10:14:56;;;;;;;19.40;3.95;;;4.30;83.70;;;;;;5138519;27;20073;-81
2022/01/20 10:17:24;;;;;;;23.60;4.25;;;4.30;84.30;;;;;;5138786;27;20038;-80
2022/01/20 10:19:57;;;;;;;17.70;3.80;;;4.40;84.50;;;;;;5156332;27;20386;-81
2022/01/20 10:22:24;;;;;;;13.38;3.25;;;4.50;84.20;;;;;;5155537;27;20043;-81
2022/01/20 10:25:19;;;;;;;13.40;4.20;;;4.50;84.30;;;;;;5138686;27;20494;-82
2022/01/20 10:27:59;;;;;;;19.77;3.53;;;4.60;83.30;;;;;;5153491;27;20055;-82
2022/01/20 10:30:29;;;;;;;21.38;4.82;;;4.80;82.90;;;;;;5138653;27;20041;-82
2022/01/20 10:32:59;;;;;;;11.25;4.43;;;4.90;82.90;;;;;;5155790;27;20034;-82
2022/01/20 10:35:28;;;;;;;15.55;4.28;;;4.90;82.80;;;;;;5138655;27;20045;-81
2022/01/20 10:38:11;;;;;;;11.15;3.75;;;4.90;82.10;;;;;;5155924;27;20073;-81
2022/01/20 10:40:56;;;;;;;21.67;3.85;;;4.90;81.20;;;;;;5155987;27;20061;-81
2022/01/20 10:43:40;;;;;;;17.92;3.70;;;4.90;79.90;;;;;;5138237;27;20068;-81
2022/01/20 10:46:11;;;;;;;17.10;3.90;;;5.00;78.80;;;;;;5138278;27;20038;-81
2022/01/20 10:48:38;;;;;;;12.60;4.25;;;5.00;79.80;;;;;;5155552;27;20042;-81
2022/01/20 10:51:23;;;;;;;22.75;8.48;;;4.90;81.20;;;;;;5155716;27;20382;-81
2022/01/20 10:54:02;;;;;;;20.48;12.38;;;4.90;81.50;;;;;;5138233;27;20039;-81
2022/01/20 10:56:28;;;;;;;13.02;4.20;;;4.80;82.30;;;;;;5155203;27;20088;-81
2022/01/20 10:58:54;;;;;;;28.70;6.43;;;4.70;82.60;;;;;;5121026;27;20038;-80
2022/01/20 11:01:20;;;;;;;15.00;2.78;;;4.70;82.50;;;;;;5154012;27;20438;-80
2022/01/20 11:03:46;;;;;;;14.52;3.53;;;4.60;83.20;;;;;;5137747;27;20114;-80
2022/01/20 11:06:12;;;;;;;20.60;3.80;;;4.60;83.00;;;;;;5155080;27;20038;-80
2022/01/20 11:08:40;;;;;;;17.45;3.33;;;4.60;82.50;;;;;;5155164;27;20554;-80
2022/01/20 11:11:05;;;;;;;10.82;3.00;;;4.60;82.40;;;;;;5137767;27;20096;-79
2022/01/20 11:13:31;;;;;;;14.50;3.20;;;4.60;82.10;;;;;;5155251;27;20043;-80
2022/01/20 11:15:57;;;;;;;7.65;2.90;;;4.80;81.00;;;;;;5154930;27;20549;-80
2022/01/20 11:18:29;;;;;;;11.23;4.50;;;5.00;79.70;;;;;;5155044;27;20042;-80
2022/01/20 11:20:56;;;;;;;11.20;2.40;;;5.10;81.00;;;;;;5137607;27;20039;-80
2022/01/20 11:23:22;;;;;;;19.75;3.70;;;5.00;82.50;;;;;;5154673;27;20113;-80
2022/01/20 11:25:48;;;;;;;12.35;2.70;;;4.70;83.20;;;;;;5154963;27;20133;-80
2022/01/20 11:28:20;;;;;;;16.20;2.80;;;4.50;84.50;;;;;;5120306;27;20545;-79
2022/01/20 11:30:58;;;;;;;14.95;4.40;;;4.40;84.60;;;;;;5154641;27;20073;-80
2022/01/20 11:33:40;;;;;;;15.98;3.88;;;4.40;84.90;;;;;;5153920;27;20501;-80
2022/01/20 11:36:09;;;;;;;8.85;2.60;;;4.40;84.50;;;;;;5152302;27;20035;-80
2022/01/20 11:38:43;;;;;;;13.18;3.33;;;4.40;83.90;;;;;;5135673;27;20035;-80
2022/01/20 11:41:13;;;;;;;12.32;3.00;;;4.60;83.90;;;;;;5154174;27;20129;-80
2022/01/20 11:43:50;;;;;;;16.55;3.35;;;4.70;83.50;;;;;;5137067;27;20449;-81
2022/01/20 11:46:21;;;;;;;17.30;4.00;;;4.80;82.00;;;;;;5154186;27;20042;-81
2022/01/20 11:49:02;;;;;;;13.07;2.88;;;5.10;80.50;;;;;;5154554;27;20035;-81
2022/01/20 11:51:50;;;;;;;16.50;2.72;;;5.10;78.10;;;;;;5137307;27;20034;-80
2022/01/20 11:54:23;;;;;;;12.02;2.92;;;5.20;77.60;;;;;;5123966;27;20074;-81
2022/01/20 11:56:49;;;;;;;11.63;2.92;;;5.10;77.40;;;;;;5136941;27;20554;-81
2022/01/20 11:59:16;;;;;;;16.58;3.67;;;5.10;78.20;;;;;;5136784;27;20035;-80
2022/01/20 12:01:53;;;;;;;25.23;9.57;;;5.10;78.10;;;;;;5119282;27;20038;-81
2022/01/20 12:04:40;;;;;;;31.95;11.13;;;5.00;79.40;;;;;;5119631;27;20053;-80
2022/01/20 12:07:09;;;;;;;18.35;4.90;;;4.90;81.10;;;;;;5153420;27;20237;-80
2022/01/20 12:09:38;;;;;;;38.00;13.02;;;4.80;82.50;;;;;;5153977;27;20072;-81
2022/01/20 12:12:07;;;;;;;15.50;4.50;;;4.90;83.20;;;;;;5153868;27;20117;-80
2022/01/20 12:14:35;;;;;;;18.50;3.70;;;4.90;83.80;;;;;;5155063;27;20042;-80
2022/01/20 12:17:04;;;;;;;22.15;3.08;;;4.80;84.20;;;;;;5154038;27;20034;-80
2022/01/20 12:19:30;;;;;;;18.25;3.70;;;4.60;84.30;;;;;;5136566;27;20100;-81
2022/01/20 12:21:56;;;;;;;16.70;3.67;;;4.70;84.40;;;;;;5153764;27;20073;-80
2022/01/20 12:24:22;;;;;;;23.52;5.40;;;4.70;84.50;;;;;;5136199;27;20150;-81
2022/01/20 12:26:47;;;;;;;9.10;2.38;;;4.70;84.60;;;;;;5136482;27;20043;-81
2022/01/20 12:29:14;;;;;;;11.15;2.10;;;4.70;85.10;;;;;;5136475;27;20035;-81
2022/01/20 12:31:53;;;;;;;9.35;1.73;;;4.70;83.50;;;;;;5136697;27;20398;-81
2022/01/20 12:34:19;;;;;;;18.58;4.00;;;4.60;82.30;;;;;;5153573;27;20045;-80
2022/01/20 12:36:58;;;;;;;11.18;2.80;;;4.50;83.50;;;;;;5136130;27;20139;-81
2022/01/20 12:39:29;;;;;;;11.50;3.42;;;4.30;84.50;;;;;;5136238;27;20141;-80
2022/01/20 12:42:00;;;;;;;9.27;2.47;;;4.30;85.30;;;;;;5136209;27;20039;-81
2022/01/20 12:44:48;;;;;;;14.20;2.95;;;4.20;85.60;;;;;;5153223;27;20046;-80
2022/01/20 12:47:15;;;;;;;12.02;2.38;;;4.20;85.20;;;;;;5136144;27;20038;-81
2022/01/20 12:49:41;;;;;;;14.85;1.67;;;4.30;84.70;;;;;;5153465;27;20042;-82
2022/01/20 12:52:08;;;;;;;12.50;2.85;;;4.60;83.40;;;;;;5119076;27;20417;-82
2022/01/20 12:54:34;;;;;;;10.50;2.28;;;4.80;82.90;;;;;;5153365;27;20046;-81
2022/01/20 12:57:06;;;;;;;16.25;3.95;;;5.10;82.10;;;;;;5135976;27;20049;-82
2022/01/20 12:59:36;;;;;;;13.57;2.65;;;5.20;81.00;;;;;;5153289;27;20558;-81
2022/01/20 13:02:12;;;;;;;9.95;2.25;;;5.20;80.70;;;;;;5153262;27;20122;-81
2022/01/20 13:04:39;;;;;;;14.35;2.90;;;5.10;81.10;;;;;;5153187;27;20043;-81
2022/01/20 13:07:09;;;;;;;14.65;2.90;;;5.10;80.00;;;;;;5136039;27;20038;-81
2022/01/20 13:09:44;;;;;;;12.57;2.47;;;5.10;80.10;;;;;;5118915;27;20035;-81
2022/01/20 13:12:12;;;;;;;16.42;3.15;;;5.10;79.70;;;;;;5153153;27;20042;-81
2022/01/20 13:14:48;;;;;;;14.05;3.30;;;5.10;78.50;;;;;;5153415;27;20064;-80
2022/01/20 13:17:23;;;;;;;10.77;2.95;;;5.10;77.60;;;;;;5152951;27;20035;-80
2022/01/20 13:19:50;;;;;;;7.95;1.98;;;5.50;76.20;;;;;;5135907;27;20126;-81
2022/01/20 13:22:53;;;;;;;10.55;2.58;;;5.80;74.60;;;;;;5119104;27;20043;-81
2022/01/20 13:25:21;;;;;;;12.68;2.38;;;6.10;74.80;;;;;;5155208;27;20039;-81
2022/01/20 13:27:58;;;;;;;12.15;3.38;;;6.30;75.70;;;;;;5157373;27;20038;-80
2022/01/20 13:30:31;;;;;;;5.63;1.42;;;6.30;75.20;;;;;;5157423;27;20043;-80
2022/01/20 13:32:58;;;;;;;4.97;1.42;;;6.10;78.50;;;;;;5139828;27;20420;-79
2022/01/20 13:35:24;;;;;;;8.10;2.50;;;5.70;79.80;;;;;;5139515;27;20626;-79
2022/01/20 13:38:03;;;;;;;6.00;1.50;;;5.60;80.70;;;;;;5156921;27;20039;-79
2022/01/20 13:40:30;;;;;;;6.82;1.60;;;5.70;81.20;;;;;;5156598;27;20093;-80
2022/01/20 13:46:03;;;;;;;9.68;2.90;;;5.90;80.00;;;;;;5156364;27;20043;-81
2022/01/20 13:48:34;;;;;;;8.85;2.25;;;6.10;77.90;;;;;;5156725;27;20042;-80
2022/01/20 13:51:03;;;;;;;15.75;2.72;;;6.10;77.30;;;;;;5156729;27;20119;-80
2022/01/20 13:53:30;;;;;;;9.07;1.60;;;6.20;76.80;;;;;;5156819;27;20053;-80
2022/01/20 13:56:03;;;;;;;8.32;1.77;;;6.20;76.30;;;;;;5138903;27;20039;-80
2022/01/20 13:58:37;;;;;;;11.65;2.50;;;6.30;76.10;;;;;;5139402;27;20035;-80
2022/01/20 14:01:08;;;;;;;17.23;3.17;;;6.50;76.40;;;;;;5139773;27;20042;-79
2022/01/20 14:03:39;;;;;;;11.15;3.35;;;6.50;76.60;;;;;;5156450;27;20045;-80
2022/01/20 14:06:06;;;;;;;11.73;1.98;;;6.50;76.50;;;;;;5139096;27;20046;-79
2022/01/20 14:08:35;;;;;;;10.02;2.28;;;6.50;75.50;;;;;;5156369;27;20117;-80